createdAt,value
2019-04-21T00:00:54.260Z,11.95
2019-04-21T00:03:26.124Z,11.60
2019-04-21T00:06:09.410Z,11.85
2019-04-21T00:08:42.433Z,11.45
2019-04-21T00:11:18.638Z,11.65
2019-04-21T00:13:42.484Z,12.35
2019-04-21T00:16:03.182Z,11.53
2019-04-21T00:18:40.766Z,12.18
2019-04-21T00:21:12.353Z,11.43
2019-04-21T00:23:55.375Z,11.40
2019-04-21T00:26:26.061Z,12.70
2019-04-21T00:29:03.990Z,11.73
2019-04-21T00:31:32.270Z,11.85
2019-04-21T00:33:46.079Z,12.20
2019-04-21T00:36:20.633Z,11.60
2019-04-21T00:39:14.529Z,12.07
2019-04-21T00:41:38.060Z,12.23
2019-04-21T00:44:01.994Z,11.90
2019-04-21T00:46:36.302Z,12.70
2019-04-21T00:49:05.942Z,12.00
2019-04-21T00:51:58.396Z,12.45
2019-04-21T00:54:37.410Z,11.95
2019-04-21T00:57:05.723Z,12.03
2019-04-21T00:59:39.202Z,12.03
2019-04-21T01:01:59.983Z,12.25
2019-04-21T01:04:30.717Z,12.25
2019-04-21T01:07:03.777Z,12.58
2019-04-21T01:09:29.136Z,13.50
2019-04-21T01:12:05.090Z,13.45
2019-04-21T01:14:41.958Z,13.48
2019-04-21T01:17:12.988Z,12.63
2019-04-21T01:19:38.792Z,14.25
2019-04-21T01:21:49.309Z,12.90
2019-04-21T01:24:26.185Z,14.20
2019-04-21T01:27:01.998Z,12.93
2019-04-21T01:29:45.974Z,13.25
2019-04-21T01:32:22.046Z,12.60
2019-04-21T01:34:45.311Z,12.75
2019-04-21T01:37:14.504Z,13.35
2019-04-21T01:39:57.176Z,12.73
2019-04-21T01:42:21.632Z,12.20
2019-04-21T01:44:54.868Z,11.38
2019-04-21T01:47:17.471Z,12.25
2019-04-21T01:49:43.215Z,11.85
2019-04-21T01:52:40.417Z,11.53
2019-04-21T01:55:08.352Z,11.17
2019-04-21T01:57:42.593Z,11.88
2019-04-21T02:00:13.319Z,11.93
2019-04-21T02:02:59.352Z,11.70
2019-04-21T02:05:34.409Z,10.98
2019-04-21T02:07:55.055Z,10.50
2019-04-21T02:10:34.681Z,10.25
2019-04-21T02:13:03.631Z,10.43
2019-04-21T02:15:42.312Z,10.82
2019-04-21T02:18:10.511Z,10.80
2019-04-21T02:20:29.444Z,10.98
2019-04-21T02:23:20.396Z,10.40
2019-04-21T02:25:39.712Z,10.63
2019-04-21T02:28:24.462Z,10.80
2019-04-21T02:31:04.872Z,11.10
2019-04-21T02:36:24.655Z,10.75
2019-04-21T02:38:53.034Z,11.18
2019-04-21T02:43:24.862Z,12.13
2019-04-21T02:46:04.347Z,11.48
2019-04-21T02:48:38.364Z,11.08
2019-04-21T02:51:12.746Z,10.90
2019-04-21T02:56:09.758Z,10.93
2019-04-21T02:58:56.726Z,10.45
2019-04-21T03:01:42.391Z,10.78
2019-04-21T03:04:22.274Z,11.00
2019-04-21T03:07:07.176Z,10.63
2019-04-21T03:09:31.788Z,11.68
2019-04-21T03:17:10.106Z,12.13
2019-04-21T03:19:48.213Z,10.85
2019-04-21T03:22:18.235Z,11.45
2019-04-21T03:24:53.980Z,11.65
2019-04-21T03:27:20.949Z,11.10
2019-04-21T03:29:46.110Z,11.95
2019-04-21T03:37:30.714Z,12.18
2019-04-21T03:39:54.459Z,11.73
2019-04-21T03:42:30.686Z,12.03
2019-04-21T03:44:59.615Z,11.97
2019-04-21T03:50:08.774Z,13.15
2019-04-21T03:55:41.527Z,12.95
2019-04-21T04:00:35.254Z,12.35
2019-04-21T04:03:15.770Z,12.93
2019-04-21T04:05:47.854Z,13.05
2019-04-21T04:08:21.826Z,12.93
2019-04-21T04:10:52.017Z,13.20
2019-04-21T04:13:17.290Z,12.65
2019-04-21T04:15:45.319Z,12.25
2019-04-21T04:18:16.680Z,13.40
2019-04-21T04:21:00.346Z,14.05
2019-04-21T04:23:27.730Z,12.70
2019-04-21T04:25:49.818Z,13.50
2019-04-21T04:28:28.900Z,13.28
2019-04-21T04:30:52.756Z,13.85
2019-04-21T04:38:53.592Z,14.20
2019-04-21T04:41:06.294Z,14.87
2019-04-21T04:43:54.657Z,14.35
2019-04-21T04:51:11.965Z,14.53
2019-04-21T04:56:10.463Z,14.07
2019-04-21T05:03:49.003Z,14.98
2019-04-21T05:09:03.951Z,15.55
2019-04-21T05:11:39.863Z,14.83
2019-04-21T05:14:02.918Z,15.53
2019-04-21T05:21:34.266Z,16.42
2019-04-21T05:23:51.176Z,15.93
2019-04-21T05:26:22.081Z,16.42
2019-04-21T05:28:54.018Z,16.75
2019-04-21T05:31:44.368Z,15.00
2019-04-21T05:34:17.135Z,16.57
2019-04-21T05:37:01.376Z,17.05
2019-04-21T05:41:53.759Z,17.37
2019-04-21T05:47:20.398Z,17.42
2019-04-21T05:49:45.235Z,16.73
2019-04-21T05:52:14.597Z,17.07
2019-04-21T05:54:59.567Z,17.12
2019-04-21T05:57:22.234Z,17.02
2019-04-21T05:59:53.680Z,16.48
2019-04-21T06:02:42.067Z,17.70
2019-04-21T06:07:28.530Z,15.53
2019-04-21T06:09:59.522Z,17.02
2019-04-21T06:12:37.250Z,16.27
2019-04-21T06:15:26.565Z,16.90
2019-04-21T06:17:42.817Z,16.42
2019-04-21T06:20:07.835Z,16.02
2019-04-21T06:22:38.709Z,15.72
2019-04-21T06:25:43.174Z,16.27
2019-04-21T06:27:49.273Z,15.85
2019-04-21T06:30:13.530Z,16.60
2019-04-21T06:32:49.292Z,16.60
2019-04-21T06:35:55.638Z,16.93
2019-04-21T06:38:19.332Z,16.30
2019-04-21T06:40:43.822Z,15.65
2019-04-21T06:43:20.989Z,17.12
2019-04-21T06:45:50.056Z,16.85
2019-04-21T06:48:21.006Z,17.75
2019-04-21T06:50:52.925Z,16.27
2019-04-21T06:53:22.143Z,16.50
2019-04-21T06:55:46.750Z,16.37
2019-04-21T06:58:22.440Z,17.17
2019-04-21T07:00:47.601Z,17.32
2019-04-21T07:03:32.310Z,16.45
2019-04-21T07:06:03.561Z,16.85
2019-04-21T07:08:36.983Z,17.23
2019-04-21T07:10:56.686Z,17.35
2019-04-21T07:13:34.650Z,16.60
2019-04-21T07:16:04.662Z,15.30
2019-04-21T07:18:37.039Z,16.23
2019-04-21T07:21:09.517Z,16.35
2019-04-21T07:23:36.895Z,17.00
2019-04-21T07:26:10.540Z,16.80
2019-04-21T07:28:38.873Z,17.05
2019-04-21T07:31:31.704Z,16.70
2019-04-21T07:33:53.397Z,17.20
2019-04-21T07:36:11.449Z,16.87
2019-04-21T07:38:43.569Z,16.12
2019-04-21T07:41:11.228Z,17.48
2019-04-21T07:43:47.285Z,17.42
2019-04-21T07:46:11.783Z,17.02
2019-04-21T07:48:49.494Z,16.73
2019-04-21T07:51:32.147Z,18.48
2019-04-21T07:54:13.456Z,18.17
2019-04-21T07:56:19.952Z,17.40
2019-04-21T07:59:05.588Z,16.93
2019-04-21T08:01:42.587Z,18.20
2019-04-21T08:04:31.984Z,18.32
2019-04-21T08:09:12.080Z,17.95
2019-04-21T08:11:41.650Z,18.05
2019-04-21T08:14:17.069Z,19.37
2019-04-21T08:16:52.476Z,18.25
2019-04-21T08:19:20.553Z,19.10
2019-04-21T08:22:01.039Z,18.95
2019-04-21T08:24:19.747Z,19.95
2019-04-21T08:26:57.576Z,20.02
2019-04-21T08:32:05.479Z,19.27
2019-04-21T08:34:30.660Z,18.80
2019-04-21T08:36:57.431Z,19.60
2019-04-21T08:39:39.488Z,20.80
2019-04-21T08:42:06.240Z,20.77
2019-04-21T08:47:09.633Z,21.73
2019-04-21T08:49:37.346Z,20.32
2019-04-21T08:52:09.929Z,20.92
2019-04-21T08:54:40.894Z,20.65
2019-04-21T08:57:41.971Z,20.70
2019-04-21T09:00:21.895Z,20.92
2019-04-21T09:03:00.381Z,22.22
2019-04-21T09:05:23.426Z,21.68
2019-04-21T09:08:00.338Z,22.67
2019-04-21T09:10:22.007Z,22.45
2019-04-21T09:12:56.273Z,21.30
2019-04-21T09:15:27.666Z,20.08
2019-04-21T09:17:53.473Z,21.85
2019-04-21T09:20:33.878Z,21.07
2019-04-21T09:23:00.718Z,21.33
2019-04-21T09:25:42.908Z,21.70
2019-04-21T09:28:06.964Z,21.90
2019-04-21T09:30:19.783Z,20.82
2019-04-21T09:32:54.489Z,20.92
2019-04-21T09:35:22.311Z,21.80
2019-04-21T09:37:58.841Z,20.97
2019-04-21T09:40:31.571Z,21.68
2019-04-21T09:43:01.052Z,20.80
2019-04-21T09:45:28.448Z,22.00
2019-04-21T09:48:05.442Z,22.65
2019-04-21T09:50:30.138Z,22.13
2019-04-21T09:53:10.280Z,23.20
2019-04-21T09:55:41.558Z,23.00
2019-04-21T09:58:13.499Z,22.48
2019-04-21T10:00:47.648Z,22.58
2019-04-21T10:03:09.911Z,22.55
2019-04-21T10:05:38.256Z,22.98
2019-04-21T10:08:08.270Z,22.05
2019-04-21T10:10:40.021Z,21.30
2019-04-21T10:13:10.627Z,20.82
2019-04-21T10:15:41.963Z,19.48
2019-04-21T10:18:17.418Z,21.97
2019-04-21T10:20:47.112Z,21.55
2019-04-21T10:23:17.728Z,21.37
2019-04-21T10:25:48.489Z,21.77
2019-04-21T10:28:19.094Z,20.23
2019-04-21T10:30:49.129Z,20.62
2019-04-21T10:33:19.644Z,18.67
2019-04-21T10:35:49.309Z,18.62
2019-04-21T10:38:29.182Z,19.48
2019-04-21T10:40:51.599Z,19.62
2019-04-21T10:43:22.614Z,19.55
2019-04-21T10:45:53.220Z,18.85
2019-04-21T10:48:23.199Z,19.00
2019-04-21T10:50:52.873Z,19.60
2019-04-21T10:53:24.949Z,19.02
2019-04-21T10:56:08.242Z,18.52
2019-04-21T10:58:32.178Z,18.30
2019-04-21T11:01:04.200Z,18.67
2019-04-21T11:03:36.952Z,19.77
2019-04-21T11:06:12.699Z,18.75
2019-04-21T11:08:45.757Z,18.82
2019-04-21T11:11:14.208Z,18.45
2019-04-21T11:13:44.353Z,18.85
2019-04-21T11:16:15.066Z,20.10
2019-04-21T11:18:46.080Z,17.95
2019-04-21T11:21:16.666Z,19.07
2019-04-21T11:23:47.911Z,17.30
2019-04-21T11:26:18.172Z,17.98
2019-04-21T11:28:48.979Z,19.65
2019-04-21T11:31:20.916Z,19.12
2019-04-21T11:33:51.230Z,17.75
2019-04-21T11:36:21.626Z,18.57
2019-04-21T11:39:17.453Z,19.30
2019-04-21T11:41:36.672Z,17.57
2019-04-21T11:44:07.672Z,18.17
2019-04-21T11:46:38.367Z,18.55
2019-04-21T11:49:08.655Z,17.90
2019-04-21T11:51:38.535Z,18.40
2019-04-21T11:54:08.744Z,16.35
2019-04-21T11:56:40.716Z,18.95
2019-04-21T11:59:12.017Z,18.10
2019-04-21T12:01:43.464Z,16.82
2019-04-21T12:04:13.872Z,17.85
2019-04-21T12:06:47.286Z,17.77
2019-04-21T12:09:15.186Z,17.73
2019-04-21T12:11:45.314Z,16.77
2019-04-21T12:14:16.271Z,17.98
2019-04-21T12:16:46.745Z,18.37
2019-04-21T12:19:16.829Z,17.67
2019-04-21T12:21:57.943Z,17.15
2019-04-21T12:24:19.147Z,15.75
2019-04-21T12:26:49.763Z,14.45
2019-04-21T12:29:20.821Z,15.32
2019-04-21T12:32:01.396Z,16.23
2019-04-21T12:34:43.778Z,16.40
2019-04-21T12:37:15.006Z,17.25
2019-04-21T12:39:45.071Z,17.42
2019-04-21T12:42:14.918Z,17.62
2019-04-21T12:44:45.412Z,19.45
2019-04-21T12:47:16.219Z,17.73
2019-04-21T12:49:47.533Z,17.95
2019-04-21T12:52:17.778Z,19.25
2019-04-21T12:54:48.054Z,16.55
2019-04-21T12:57:19.152Z,14.65
2019-04-21T12:59:49.009Z,16.45
2019-04-21T13:02:19.867Z,14.85
2019-04-21T13:04:51.352Z,14.25
2019-04-21T13:07:21.674Z,12.30
2019-04-21T13:09:52.656Z,12.33
2019-04-21T13:12:23.189Z,12.45
2019-04-21T13:14:54.776Z,11.55
2019-04-21T13:17:24.100Z,10.95
2019-04-21T13:19:53.968Z,12.58
2019-04-21T13:22:24.164Z,9.30
2019-04-21T13:24:53.907Z,8.85
2019-04-21T13:27:24.811Z,8.78
2019-04-21T13:29:54.815Z,9.98
2019-04-21T13:32:24.922Z,10.23
2019-04-21T13:34:54.991Z,9.98
2019-04-21T13:37:25.655Z,11.12
2019-04-21T13:40:23.727Z,10.63
2019-04-21T13:42:38.338Z,10.25
2019-04-21T13:45:04.858Z,9.73
2019-04-21T13:47:36.541Z,12.63
2019-04-21T13:50:08.780Z,11.83
2019-04-21T13:52:38.720Z,10.65
2019-04-21T13:55:09.608Z,9.95
2019-04-21T13:57:40.944Z,9.65
2019-04-21T14:00:11.220Z,10.38
2019-04-21T14:02:42.543Z,11.38
2019-04-21T14:05:15.498Z,10.35
2019-04-21T14:07:46.018Z,10.32
2019-04-21T14:10:17.928Z,9.43
2019-04-21T14:12:48.899Z,9.95
2019-04-21T14:15:22.142Z,9.80
2019-04-21T14:17:53.111Z,9.95
2019-04-21T14:20:23.086Z,9.58
2019-04-21T14:22:53.975Z,11.93
2019-04-21T14:25:24.190Z,10.72
2019-04-21T14:27:56.432Z,10.58
2019-04-21T14:30:28.124Z,10.85
2019-04-21T14:32:58.205Z,11.95
2019-04-21T14:35:29.400Z,10.88
2019-04-21T14:38:00.553Z,15.60
2019-04-21T14:40:33.199Z,12.30
2019-04-21T14:43:02.679Z,15.18
2019-04-21T14:45:36.858Z,13.18
2019-04-21T14:48:25.297Z,11.20
2019-04-21T14:51:06.540Z,11.03
2019-04-21T14:53:47.836Z,11.15
2019-04-21T14:56:17.752Z,10.50
2019-04-21T14:58:48.789Z,12.28
2019-04-21T15:01:19.767Z,12.37
2019-04-21T15:03:50.050Z,12.37
2019-04-21T15:06:21.207Z,12.25
2019-04-21T15:08:51.221Z,12.30
2019-04-21T15:11:22.159Z,11.53
2019-04-21T15:13:53.346Z,11.22
2019-04-21T15:16:24.848Z,11.97
2019-04-21T15:18:54.815Z,11.40
2019-04-21T15:21:25.689Z,11.57
2019-04-21T15:23:56.270Z,11.05
2019-04-21T15:26:26.353Z,11.10
2019-04-21T15:28:57.083Z,11.75
2019-04-21T15:31:32.157Z,11.28
2019-04-21T15:33:59.178Z,12.23
2019-04-21T15:36:31.852Z,11.83
2019-04-21T15:39:01.545Z,11.22
2019-04-21T15:41:32.281Z,12.00
2019-04-21T15:44:04.052Z,11.75
2019-04-21T15:46:35.222Z,11.43
2019-04-21T15:49:05.285Z,11.75
2019-04-21T15:51:35.747Z,11.38
2019-04-21T15:54:06.805Z,11.78
2019-04-21T15:56:38.571Z,11.53
2019-04-21T15:59:16.639Z,12.43
2019-04-21T16:01:50.553Z,10.78
2019-04-21T16:04:20.846Z,11.28
2019-04-21T16:06:51.199Z,10.13
2019-04-21T16:09:23.301Z,11.18
2019-04-21T16:11:53.572Z,12.28
2019-04-21T16:14:24.738Z,12.40
2019-04-21T16:16:54.814Z,10.88
2019-04-21T16:19:24.984Z,12.10
2019-04-21T16:21:54.987Z,12.13
2019-04-21T16:24:25.301Z,12.58
2019-04-21T16:26:56.518Z,11.75
2019-04-21T16:29:27.119Z,12.25
2019-04-21T16:31:57.449Z,11.70
2019-04-21T16:34:38.990Z,12.60
2019-04-21T16:36:59.536Z,10.58
2019-04-21T16:39:29.517Z,10.78
2019-04-21T16:42:00.418Z,10.78
2019-04-21T16:44:31.291Z,11.38
2019-04-21T16:47:01.438Z,9.18
2019-04-21T16:49:31.731Z,9.13
2019-04-21T16:52:23.647Z,9.23
2019-04-21T16:54:55.811Z,9.03
2019-04-21T16:57:28.048Z,10.50
2019-04-21T17:00:00.268Z,9.68
2019-04-21T17:02:30.451Z,10.38
2019-04-21T17:05:00.574Z,9.20
2019-04-21T17:07:30.514Z,10.15
2019-04-21T17:10:00.173Z,10.40
2019-04-21T17:12:30.679Z,8.90
2019-04-21T17:16:24.410Z,8.58
2019-04-21T17:17:54.726Z,8.58
2019-04-21T17:20:19.247Z,8.68
2019-04-21T17:22:37.500Z,8.03
2019-04-21T17:25:08.711Z,8.15
2019-04-21T17:27:39.008Z,8.88
2019-04-21T17:30:10.779Z,7.55
2019-04-21T17:32:47.282Z,8.28
2019-04-21T17:35:14.188Z,12.07
2019-04-21T17:37:45.874Z,10.40
2019-04-21T17:40:21.834Z,15.23
2019-04-21T17:43:01.590Z,14.55
2019-04-21T17:45:23.604Z,15.10
2019-04-21T17:47:59.829Z,16.12
2019-04-21T17:50:45.451Z,16.15
2019-04-21T17:53:26.522Z,16.48
2019-04-21T17:56:20.655Z,16.75
2019-04-21T17:58:52.462Z,16.40
2019-04-21T18:04:00.055Z,17.95
2019-04-21T18:06:25.717Z,17.82
2019-04-21T18:11:29.117Z,19.17
2019-04-21T18:13:43.977Z,18.65
2019-04-21T18:16:25.311Z,18.30
2019-04-21T18:18:46.648Z,19.02
2019-04-21T18:21:30.433Z,20.60
2019-04-21T18:24:10.334Z,21.25
2019-04-21T18:26:40.532Z,21.57
2019-04-21T18:29:05.486Z,22.00
2019-04-21T18:31:42.702Z,20.27
2019-04-21T18:34:16.222Z,19.60
2019-04-21T18:36:49.727Z,19.55
2019-04-21T18:39:34.368Z,21.15
2019-04-21T18:42:17.184Z,21.45
2019-04-21T18:44:53.471Z,20.72
2019-04-21T18:47:19.908Z,21.05
2019-04-21T18:49:46.050Z,21.00
2019-04-21T18:52:38.614Z,21.45
2019-04-21T18:55:05.302Z,20.55
2019-04-21T18:57:35.615Z,21.33
2019-04-21T18:59:57.584Z,21.70
2019-04-21T19:02:31.830Z,21.82
2019-04-21T19:05:07.438Z,22.30
2019-04-21T19:07:51.911Z,21.73
2019-04-21T19:10:26.811Z,21.77
2019-04-21T19:15:27.867Z,22.50
2019-04-21T19:18:37.197Z,22.50
2019-04-21T19:20:36.198Z,21.27
2019-04-21T19:22:57.074Z,22.13
2019-04-21T19:25:31.454Z,21.60
2019-04-21T19:28:12.157Z,20.85
2019-04-21T19:33:11.653Z,21.27
2019-04-21T19:35:27.476Z,23.00
2019-04-21T19:38:03.968Z,22.80
2019-04-21T19:40:48.686Z,22.20
2019-04-21T19:43:07.875Z,22.35
2019-04-21T19:45:45.107Z,22.90
2019-04-21T19:48:20.386Z,22.55
2019-04-21T19:50:57.365Z,23.05
2019-04-21T19:53:21.353Z,21.27
2019-04-21T19:55:38.403Z,23.15
2019-04-21T19:58:08.308Z,20.88
2019-04-21T20:00:38.684Z,20.77
2019-04-21T20:03:08.544Z,21.23
2019-04-21T20:05:45.419Z,24.27
2019-04-21T20:08:26.346Z,24.05
2019-04-21T20:11:01.155Z,23.83
2019-04-21T20:13:40.540Z,24.87
2019-04-21T20:16:04.015Z,24.07
2019-04-21T20:18:24.514Z,23.45
2019-04-21T20:20:48.013Z,24.32
2019-04-21T20:23:22.828Z,25.10
2019-04-21T20:25:54.884Z,27.17
2019-04-21T20:28:33.161Z,27.15
2019-04-21T20:31:14.675Z,26.87
2019-04-21T20:36:15.864Z,25.15
2019-04-21T20:38:35.839Z,23.95
2019-04-21T20:41:10.928Z,26.25
2019-04-21T20:43:47.262Z,25.32
2019-04-21T20:46:23.768Z,25.68
2019-04-21T20:48:49.433Z,24.45
2019-04-21T20:51:23.554Z,24.72
2019-04-21T20:53:50.606Z,25.17
2019-04-21T20:56:16.038Z,23.60
2019-04-21T20:58:55.452Z,23.00
2019-04-21T21:03:58.004Z,22.20
2019-04-21T21:06:26.244Z,22.35
2019-04-21T21:09:01.513Z,20.82
2019-04-21T21:11:43.483Z,20.30
2019-04-21T21:14:07.461Z,19.75
2019-04-21T21:16:44.701Z,20.25
2019-04-21T21:19:18.441Z,19.02
2019-04-21T21:21:34.493Z,18.67
2019-04-21T21:24:08.713Z,18.95
2019-04-21T21:26:47.088Z,17.77
2019-04-21T21:29:18.267Z,17.00
2019-04-21T21:31:50.506Z,17.48
2019-04-21T21:34:25.908Z,18.02
2019-04-21T21:36:47.722Z,17.57
2019-04-21T21:39:26.279Z,16.82
2019-04-21T21:41:45.165Z,17.45
2019-04-21T21:44:16.140Z,17.55
2019-04-21T21:46:53.851Z,18.15
2019-04-21T21:49:29.496Z,17.55
2019-04-21T21:51:59.194Z,16.67
2019-04-21T21:54:17.997Z,17.70
2019-04-21T21:56:48.296Z,17.23
2019-04-21T21:59:22.915Z,17.07
2019-04-21T22:01:52.544Z,16.27
2019-04-21T22:04:26.386Z,15.10
2019-04-21T22:06:58.233Z,15.88
2019-04-21T22:09:24.251Z,16.12
2019-04-21T22:11:57.895Z,15.68
2019-04-21T22:14:33.170Z,14.45
2019-04-21T22:17:10.904Z,14.93
2019-04-21T22:19:52.260Z,15.18
2019-04-21T22:22:16.883Z,14.70
2019-04-21T22:24:46.443Z,14.43
2019-04-21T22:27:03.176Z,13.83
2019-04-21T22:29:36.299Z,14.30
2019-04-21T22:32:12.653Z,13.38
2019-04-21T22:34:46.961Z,13.03
2019-04-21T22:37:25.901Z,13.30
2019-04-21T22:39:53.022Z,12.53
2019-04-21T22:42:17.994Z,12.73
2019-04-21T22:44:43.030Z,12.78
2019-04-21T22:47:18.381Z,12.90
2019-04-21T22:49:44.554Z,11.90
2019-04-21T22:52:19.215Z,12.60
2019-04-21T22:54:47.296Z,11.57
2019-04-21T22:57:21.993Z,12.33
2019-04-21T22:59:55.206Z,11.65
2019-04-21T23:02:28.554Z,12.00
2019-04-21T23:04:58.024Z,11.78
2019-04-21T23:07:26.688Z,12.28
2019-04-21T23:09:57.256Z,11.25
2019-04-21T23:12:32.643Z,12.28
2019-04-21T23:15:06.502Z,11.33
2019-04-21T23:17:50.449Z,12.23
2019-04-21T23:20:22.643Z,11.73
2019-04-21T23:23:01.997Z,12.40
2019-04-21T23:25:23.285Z,12.80
2019-04-21T23:27:57.356Z,12.03
2019-04-21T23:30:34.055Z,12.82
2019-04-21T23:32:50.787Z,12.03
2019-04-21T23:35:25.710Z,14.03
2019-04-21T23:37:51.057Z,13.28
2019-04-21T23:40:20.272Z,12.78
2019-04-21T23:42:49.126Z,12.65
2019-04-21T23:45:27.460Z,13.15
2019-04-21T23:48:01.697Z,13.90
2019-04-21T23:50:34.147Z,12.43
2019-04-21T23:52:55.303Z,13.13
2019-04-21T23:55:25.404Z,13.20
2019-04-21T23:58:04.968Z,12.98
